Flight Track Log - Related Links

Times and Time Zones

All times are in EDT time to prevent confusion due to time zone crossing. See the AAY894 flight status page for this flight to view local times or setup timezone preferences in your user account.

Time Position Orientation Groundspeed Altitude Reporting Facility
EDT Latitude Longitude Course Direction KTS MPH feet Rate Location/Type
Thu 07:51:37 AM 27.9000 -82.6833 201° Southwest 181 208 600  Level Tampa TRACON
Thu 07:53:22 AM 27.8236 -82.7161 201° Southwest 227 261 3,600 1,988 Climbing Miami Center
Thu 07:54:23 AM 27.8967 -82.7481 339° North 280 322 6,100 2,557 Climbing Miami Center
Thu 07:55:24 AM 27.9756 -82.7328 10° North 285 328 8,800 2,311 Climbing Miami Center
Thu 07:56:25 AM 28.0603 -82.7225 North 300 345 10,800 1,512 Climbing Miami Center
Thu 07:57:27 AM 28.1578 -82.7131 North 341 392 11,900 1,109 Climbing Miami Center
Thu 07:57:57 AM 28.2042 -82.7136 359° North 326 375 12,500 2,067 Climbing Jacksonville Center
Thu 07:58:57 AM 28.3189 -82.7039 North 375 432 15,000 2,350 Climbing Jacksonville Center
Thu 07:59:57 AM 28.4356 -82.6919 North 402 463 17,200 1,850 Climbing Jacksonville Center
Thu 08:00:57 AM 28.5547 -82.6800 North 421 484 18,700 1,650 Climbing Jacksonville Center
Thu 08:01:57 AM 28.6797 -82.6703 North 434 499 20,500 1,850 Climbing Jacksonville Center
Thu 08:02:57 AM 28.7986 -82.6603 North 434 499 22,400 1,550 Climbing Jacksonville Center
Thu 08:03:57 AM 28.9261 -82.6506 North 444 511 23,600 1,450 Climbing Jacksonville Center
Thu 08:04:57 AM 29.0533 -82.6383 North 449 517 25,300 1,700 Climbing Jacksonville Center
Thu 08:05:57 AM 29.1786 -82.6286 North 449 517 27,000 1,700 Climbing Jacksonville Center
Thu 08:06:57 AM 29.3039 -82.6164 North 449 517 28,700 1,700 Climbing Jacksonville Center
Thu 08:07:57 AM 29.4269 -82.6064 North 443 510 30,400 1,100 Climbing Jacksonville Center
Thu 08:08:57 AM 29.5439 -82.6014 North 431 496 30,900 300 Climbing Jacksonville Center
Thu 08:09:57 AM 29.6608 -82.5939 North 420 483 31,000 50 Climbing Jacksonville Center
Thu 08:10:57 AM 29.7797 -82.5864 North 420 483 31,000 550 Level Jacksonville Center
Thu 08:11:57 AM 29.8986 -82.5811 North 420 483 32,100 950 Climbing Jacksonville Center
Thu 08:12:57 AM 30.0281 -82.5808 360° North 420 483 32,900 400 Climbing Jacksonville Center
Thu 08:13:57 AM 30.1303 -82.5731 North 420 483 32,900  Level Jacksonville Center
Thu 08:14:57 AM 30.2453 -82.5681 North 415 478 32,900 50 Level Jacksonville Center
Thu 08:15:57 AM 30.3622 -82.5603 North 415 478 33,000 50 Climbing Jacksonville Center
Thu 08:16:57 AM 30.4769 -82.5550 North 415 478 33,000 -50 Level Jacksonville Center
Thu 08:17:57 AM 30.5939 -82.5500 North 415 478 32,900 -50 Descending Jacksonville Center
Thu 08:18:57 AM 30.7108 -82.5469 North 415 478 32,900  Level Jacksonville Center
Thu 08:19:57 AM 30.8256 -82.5417 North 415 478 32,900  Level Jacksonville Center
Thu 08:20:57 AM 30.9406 -82.5342 North 415 478 32,900 50 Level Jacksonville Center
Thu 08:21:57 AM 31.0572 -82.5289 North 415 478 33,000  Climbing Jacksonville Center
Thu 08:22:57 AM 31.1742 -82.5258 North 421 484 32,900 -50 Descending Jacksonville Center
Thu 08:23:57 AM 31.2869 -82.5231 North 421 484 32,900 50 Level Jacksonville Center
Thu 08:24:57 AM 31.4164 -82.5103 North 416 479 33,000 50 Climbing Jacksonville Center
Thu 08:25:57 AM 31.5333 -82.5075 North 416 479 33,000  Level Jacksonville Center
Thu 08:27:51 AM 31.7389 -82.4783 North 419 482 33,000  Level Atlanta Center
Thu 08:28:51 AM 31.8556 -82.4592 North 419 482 33,000  Level Atlanta Center
Thu 08:29:51 AM 31.9700 -82.4403 North 419 482 33,000  Level Atlanta Center
Thu 08:30:51 AM 32.0886 -82.4208 North 424 488 33,000  Level Atlanta Center
Thu 08:31:51 AM 32.2033 -82.4042 North 424 488 33,000  Level Atlanta Center
Thu 08:32:51 AM 32.3136 -82.3897 North 419 482 33,000  Level Atlanta Center
Thu 08:33:51 AM 32.4303 -82.3703 North 414 476 33,000  Level Atlanta Center
Thu 08:34:51 AM 32.5450 -82.3508 North 414 476 33,000  Level Atlanta Center
Thu 08:35:51 AM 32.6594 -82.3314 North 414 476 33,000  Level Atlanta Center
Thu 08:36:51 AM 32.7739 -82.3144 North 414 476 33,000  Level Atlanta Center
Thu 08:37:51 AM 32.9011 -82.2922 North 414 476 33,000  Level Atlanta Center
Thu 08:38:51 AM 33.0156 -82.2750 North 414 476 33,000  Level Atlanta Center
Thu 08:39:51 AM 33.1300 -82.2553 North 408 470 33,000  Level Atlanta Center
Thu 08:40:51 AM 33.2444 -82.2356 North 408 470 33,000  Level Atlanta Center
Thu 08:41:51 AM 33.3592 -82.2183 North 408 470 33,000  Level Atlanta Center
Thu 08:42:51 AM 33.4736 -82.1983 North 408 470 33,000  Level Atlanta Center
Thu 08:43:51 AM 33.5903 -82.1808 North 408 470 33,000  Level Atlanta Center
Thu 08:44:51 AM 33.7047 -82.1611 North 408 470 33,000  Level Atlanta Center
Thu 08:45:51 AM 33.8214 -82.1383 North 408 470 33,000  Level Atlanta Center
Thu 08:46:51 AM 33.9275 -82.1211 North 414 476 33,000  Level Atlanta Center
Thu 08:47:51 AM 34.0419 -82.1033 North 414 476 33,000  Level Atlanta Center
Thu 08:48:51 AM 34.1564 -82.0833 North 414 476 33,000  Level Atlanta Center
Thu 08:49:51 AM 34.2708 -82.0631 North 414 476 33,000  Level Atlanta Center
Thu 08:50:51 AM 34.3875 -82.0403 North 414 476 33,000  Level Atlanta Center
Thu 08:51:51 AM 34.5017 -82.0097 12° North 414 476 33,000  Level Atlanta Center
Thu 08:52:51 AM 34.6161 -81.9817 11° North 414 476 33,000  Level Atlanta Center
Thu 08:53:51 AM 34.7281 -81.9511 13° North 414 476 33,000  Level Atlanta Center
Thu 08:54:51 AM 34.8425 -81.9256 10° North 409 471 33,000  Level Atlanta Center
Thu 08:55:51 AM 34.9567 -81.8972 11° North 409 471 33,000  Level Atlanta Center
Thu 08:56:51 AM 35.0711 -81.8689 11° North 409 471 33,000  Level Atlanta Center
Thu 08:57:51 AM 35.1831 -81.8381 13° North 409 471 33,000  Level Atlanta Center
Thu 08:58:51 AM 35.2975 -81.8069 13° North 409 471 33,000  Level Atlanta Center
Thu 08:59:51 AM 35.4117 -81.7758 13° North 409 471 33,000  Level Atlanta Center
Thu 09:00:51 AM 35.5236 -81.7447 13° North 409 471 33,000  Level Atlanta Center
Thu 09:01:51 AM 35.6503 -81.7131 11° North 414 476 33,000  Level Atlanta Center
Thu 09:02:51 AM 35.7644 -81.6792 14° North 414 476 33,000  Level Atlanta Center
Thu 09:03:51 AM 35.8806 -81.6475 12° North 414 476 33,000  Level Atlanta Center
Thu 09:04:51 AM 35.9967 -81.6133 13° North 414 476 33,000  Level Atlanta Center
Thu 09:05:51 AM 36.1131 -81.5842 11° North 414 476 33,000  Level Atlanta Center
Thu 09:06:51 AM 36.2269 -81.5497 14° North 414 476 33,000  Level Atlanta Center
Thu 09:07:51 AM 36.3433 -81.5206 11° North 419 482 33,000  Level Atlanta Center
Thu 09:08:51 AM 36.4594 -81.4883 13° North 424 488 33,000  Level Atlanta Center
Thu 09:09:51 AM 36.5775 -81.4536 13° North 424 488 33,000  Level Atlanta Center
Thu 09:10:51 AM 36.6956 -81.4214 12° North 430 495 33,000  Level Atlanta Center
Thu 09:12:26 AM 36.8750 -81.3714 13° North 437 503 33,000  Level Indianapolis Center
Thu 09:13:28 AM 36.9931 -81.3383 13° North 437 503 33,000  Level Indianapolis Center
Thu 09:14:30 AM 37.1106 -81.3056 13° North 437 503 33,000  Level Indianapolis Center
Thu 09:15:32 AM 37.2494 -81.2667 13° North 437 503 33,000  Level Indianapolis Center
Thu 09:16:33 AM 37.3486 -81.2386 13° North 437 503 33,000  Level Indianapolis Center
Thu 09:17:35 AM 37.4886 -81.1994 13° North 433 498 33,000  Level Indianapolis Center
Thu 09:18:37 AM 37.6053 -81.1656 13° North 433 498 33,000  Level Indianapolis Center
Thu 09:19:39 AM 37.7236 -81.1319 13° North 433 498 33,000  Level Indianapolis Center
Thu 09:20:41 AM 37.8458 -81.0986 12° North 433 498 33,000  Level Indianapolis Center
Thu 09:21:42 AM 37.9633 -81.0650 13° North 433 498 33,000  Level Indianapolis Center
Thu 09:22:44 AM 38.0825 -81.0306 13° North 434 499 33,000  Level Indianapolis Center
Thu 09:23:46 AM 38.2008 -80.9972 12° North 434 499 33,000  Level Indianapolis Center
Thu 09:24:48 AM 38.3447 -80.9553 13° North 438 504 33,000  Level Indianapolis Center
Thu 09:25:50 AM 38.4647 -80.9194 13° North 439 505 33,000  Level Indianapolis Center
Thu 09:26:52 AM 38.5842 -80.8853 13° North 440 506 33,000  Level Indianapolis Center
Thu 09:27:54 AM 38.7039 -80.8503 13° North 440 506 33,000  Level Indianapolis Center
Thu 09:28:55 AM 38.8244 -80.8150 13° North 443 510 33,000  Level Indianapolis Center
Thu 09:30:44 AM 39.0478 -80.7506 13° North 436 502 33,000  Level Cleveland Center
Thu 09:31:46 AM 39.1664 -80.7131 14° North 437 503 33,000  Level Cleveland Center
Thu 09:32:48 AM 39.2839 -80.6644 18° North 443 510 33,000  Level Cleveland Center
Thu 09:33:50 AM 39.3994 -80.6136 19° North 443 510 33,000  Level Cleveland Center
Thu 09:34:52 AM 39.5339 -80.5592 17° North 443 510 33,000  Level Cleveland Center
Thu 09:35:54 AM 39.6519 -80.5094 18° North 445 512 33,000  Level Cleveland Center
Thu 09:36:56 AM 39.7692 -80.4597 18° North 443 510 33,000  Level Cleveland Center
Thu 09:37:58 AM 39.8864 -80.4097 18° North 443 510 33,000  Level Cleveland Center
Thu 09:39:00 AM 40.0197 -80.3511 19° North 435 501 33,000  Level Cleveland Center
Thu 09:40:02 AM 40.1283 -80.3036 18° North 432 497 33,000  Level Cleveland Center
Thu 09:41:04 AM 40.2425 -80.2553 18° North 432 497 33,000  Level Cleveland Center
Thu 09:42:06 AM 40.3572 -80.2039 19° North 433 498 33,000  Level Cleveland Center
Thu 09:43:08 AM 40.4944 -80.1431 19° North 436 502 33,000  Level Cleveland Center
Thu 09:44:10 AM 40.6094 -80.0933 18° North 436 502 33,000  Level Cleveland Center
Thu 09:45:12 AM 40.7250 -80.0442 18° North 436 502 33,000 -97 Level Cleveland Center
Thu 09:46:14 AM 40.8425 -79.9919 19° North 442 509 32,800 -581 Descending Cleveland Center
Thu 09:47:16 AM 40.9592 -79.9389 19° North 443 510 31,800 -871 Descending Cleveland Center
Thu 09:48:18 AM 41.0761 -79.8847 19° North 444 511 31,000 -387 Descending Cleveland Center
Thu 09:49:20 AM 41.2164 -79.8236 18° North 444 511 31,000 -290 Level Cleveland Center
Thu 09:50:22 AM 41.3325 -79.7714 19° North 443 510 30,400 -726 Descending Cleveland Center
Thu 09:51:24 AM 41.4497 -79.7181 19° North 443 510 29,500 -976 Descending Cleveland Center
Thu 09:52:25 AM 41.5683 -79.6644 19° North 448 516 28,400 -1,024 Descending Cleveland Center
Thu 09:53:27 AM 41.6842 -79.6103 19° North 446 513 27,400 -1,500 Descending Cleveland Center
Thu 09:54:29 AM 41.7981 -79.5583 19° North 433 498 25,300 -2,226 Descending Cleveland Center
Thu 09:55:31 AM 41.9261 -79.4997 19° North 408 470 22,800 -2,177 Descending Cleveland Center
Thu 09:56:33 AM 42.0317 -79.4503 19° North 407 468 20,800 -2,032 Descending Cleveland Center
Thu 09:57:35 AM 42.1375 -79.4022 19° North 405 466 18,600 -2,049 Descending Cleveland Center
Thu 09:58:36 AM 42.2375 -79.3553 19° North 387 445 16,600 -1,951 Descending Cleveland Center
Thu 09:59:38 AM 42.3328 -79.3114 19° North 370 426 14,600 -1,790 Descending Cleveland Center
Thu 10:00:40 AM 42.4269 -79.2675 19° North 360 414 12,900 -1,500 Descending Cleveland Center
Thu 10:01:42 AM 42.5275 -79.2231 18° North 359 413 11,500 -1,065 Descending Cleveland Center
Thu 10:02:44 AM 42.6100 -79.1831 20° North 316 364 10,700 -1,258 Descending Cleveland Center
Thu 10:03:46 AM 42.6992 -79.1422 19° North 284 327 8,900 -1,548 Descending Cleveland Center
Thu 10:04:48 AM 42.7697 -79.1114 18° North 279 321 7,500 -1,268 Descending Cleveland Center
Thu 10:05:49 AM 42.8369 -79.0625 28° Northeast 276 318 6,300 -1,317 Descending Cleveland Center
Thu 10:06:51 AM 42.8964 -78.9942 40° Northeast 270 311 4,800 -1,113 Descending Cleveland Center
Thu 10:07:53 AM 42.9514 -78.9283 41° Northeast 258 297 4,000 -387 Descending Cleveland Center
Thu 10:08:55 AM 42.9964 -78.8508 52° Northeast 257 296 4,000 -49 Level Cleveland Center
Thu 10:09:56 AM 43.0583 -78.8381 North 244 281 3,900 -488 Descending Cleveland Center
Thu 10:10:58 AM 43.1175 -78.8392 359° North 212 244 3,000 -435 Descending Cleveland Center
Thu 10:12:00 AM 43.1761 -78.8517 351° North 211 243 3,000 -290 Level Cleveland Center
Thu 10:13:02 AM 43.1819 -78.9389 275° West 223 257 2,400 -484 Descending Cleveland Center
Thu 10:14:04 AM 43.1806 -79.0206 269° West 207 238 2,000 -293 Descending Cleveland Center
Thu 10:15:05 AM 43.1372 -79.0353 194° South 182 209 1,800 -390 Descending Cleveland Center
Thu 10:16:07 AM 43.1097 -79.0064 143° Southeast 149 171 1,200 -339 Descending Cleveland Center
Thu 10:17:09 AM 43.1086 -78.9594 92° East 141 162 1,100 -97 Descending Cleveland Center

Login

Don't have an account? Register now (free) for customized features, flight alerts, and more!